createdAt,value
2023-05-09T00:02:02.209Z,30.04
2023-05-09T00:04:29.263Z,30.05
2023-05-09T00:06:55.957Z,29.63
2023-05-09T00:09:22.447Z,29.88
2023-05-09T00:11:48.983Z,30.17
2023-05-09T00:14:15.706Z,30.30
2023-05-09T00:16:42.242Z,30.84
2023-05-09T00:19:08.782Z,30.50
2023-05-09T00:21:35.323Z,30.67
2023-05-09T00:24:01.857Z,30.29
2023-05-09T00:26:28.669Z,30.38
2023-05-09T00:28:55.307Z,30.40
2023-05-09T00:31:21.903Z,30.89
2023-05-09T00:33:48.568Z,30.32
2023-05-09T00:36:15.074Z,30.33
2023-05-09T00:38:41.589Z,30.28
2023-05-09T00:41:08.283Z,30.63
2023-05-09T00:43:34.833Z,30.34
2023-05-09T00:46:01.443Z,30.12
2023-05-09T00:48:28.073Z,29.97
2023-05-09T00:50:54.719Z,30.48
2023-05-09T00:53:21.299Z,30.40
2023-05-09T00:55:48.517Z,30.39
2023-05-09T00:58:15.104Z,30.01
2023-05-09T01:00:43.002Z,30.04
2023-05-09T01:03:09.904Z,30.21
2023-05-09T01:05:56.591Z,30.25
2023-05-09T01:08:47.280Z,29.91
2023-05-09T01:11:32.773Z,30.14
2023-05-09T01:14:12.537Z,30.48
2023-05-09T01:16:43.167Z,30.32
2023-05-09T01:19:15.970Z,31.13
2023-05-09T01:21:44.440Z,30.88
2023-05-09T01:24:23.263Z,30.41
2023-05-09T01:27:11.500Z,30.07
2023-05-09T01:29:40.103Z,30.30
2023-05-09T01:32:15.469Z,30.30
2023-05-09T01:34:43.512Z,30.55
2023-05-09T01:37:11.361Z,30.44
2023-05-09T01:39:39.932Z,30.32
2023-05-09T01:42:08.737Z,30.12
2023-05-09T01:44:40.219Z,31.12
2023-05-09T01:47:07.976Z,30.24
2023-05-09T01:49:36.297Z,30.59
2023-05-09T01:52:08.866Z,30.61
2023-05-09T01:54:36.092Z,30.63
2023-05-09T01:57:03.499Z,30.70
2023-05-09T01:59:31.106Z,30.18
2023-05-09T02:01:57.850Z,30.51
2023-05-09T02:04:24.926Z,30.29
2023-05-09T02:06:52.111Z,30.22
2023-05-09T02:09:19.516Z,30.32
2023-05-09T02:11:46.889Z,30.61
2023-05-09T02:14:13.986Z,30.08
2023-05-09T02:16:40.857Z,29.95
2023-05-09T02:19:07.462Z,30.07
2023-05-09T02:21:34.079Z,30.23
2023-05-09T02:24:00.682Z,29.94
2023-05-09T02:26:28.663Z,30.42
2023-05-09T02:28:55.928Z,30.22
2023-05-09T02:31:24.467Z,30.31
2023-05-09T02:33:52.729Z,30.35
2023-05-09T02:36:19.828Z,30.02
2023-05-09T02:38:46.474Z,29.97
2023-05-09T02:41:14.331Z,30.52
2023-05-09T02:43:40.980Z,30.04
2023-05-09T02:46:08.185Z,30.56
2023-05-09T02:48:35.271Z,30.57
2023-05-09T02:51:01.902Z,30.20
2023-05-09T02:53:28.493Z,30.02
2023-05-09T02:55:55.076Z,30.09
2023-05-09T02:58:21.647Z,30.15
2023-05-09T03:00:48.171Z,30.45
2023-05-09T03:03:15.058Z,30.47
2023-05-09T03:05:41.642Z,30.41
2023-05-09T03:08:08.214Z,30.12
2023-05-09T03:10:35.188Z,30.43
2023-05-09T03:13:02.426Z,30.25
2023-05-09T03:15:29.024Z,30.45
2023-05-09T03:17:58.350Z,30.12
2023-05-09T03:20:26.352Z,30.18
2023-05-09T03:22:53.159Z,30.05
2023-05-09T03:25:20.568Z,29.98
2023-05-09T03:27:47.093Z,29.85
2023-05-09T03:30:15.619Z,30.30
2023-05-09T03:32:44.283Z,30.55
2023-05-09T03:35:11.099Z,30.36
2023-05-09T03:37:37.836Z,30.33
2023-05-09T03:40:07.331Z,30.36
2023-05-09T03:42:39.695Z,30.38
2023-05-09T03:45:06.672Z,30.25
2023-05-09T03:47:33.400Z,30.27
2023-05-09T03:50:00.584Z,30.37
2023-05-09T03:52:27.355Z,30.36
2023-05-09T03:54:54.562Z,30.23
2023-05-09T03:57:21.266Z,30.11
2023-05-09T03:59:50.268Z,30.57
2023-05-09T04:02:16.946Z,30.39
2023-05-09T04:04:46.550Z,30.39
2023-05-09T04:07:13.546Z,30.42
2023-05-09T04:09:42.401Z,30.40
2023-05-09T04:12:09.156Z,30.04
2023-05-09T04:14:35.675Z,30.56
2023-05-09T04:17:02.651Z,30.93
2023-05-09T04:19:29.574Z,30.38
2023-05-09T04:21:56.110Z,30.41
2023-05-09T04:24:22.616Z,30.74
2023-05-09T04:26:49.950Z,30.37
2023-05-09T04:29:20.841Z,30.48
2023-05-09T04:31:52.533Z,30.23
2023-05-09T04:34:20.608Z,30.30
2023-05-09T04:36:47.819Z,30.66
2023-05-09T04:39:14.453Z,30.18
2023-05-09T04:41:50.063Z,30.19
2023-05-09T04:44:17.422Z,30.48
2023-05-09T04:46:45.052Z,30.68
2023-05-09T04:49:11.893Z,30.67
2023-05-09T04:51:38.420Z,30.57
2023-05-09T04:54:04.943Z,30.68
2023-05-09T04:56:34.953Z,30.61
2023-05-09T04:59:02.755Z,30.54
2023-05-09T05:01:29.841Z,30.47
2023-05-09T05:03:56.878Z,30.41
2023-05-09T05:06:23.400Z,30.30
2023-05-09T05:08:50.239Z,30.14
2023-05-09T05:11:17.940Z,30.01
2023-05-09T05:13:45.035Z,30.33
2023-05-09T05:16:11.729Z,30.59
2023-05-09T05:18:38.339Z,30.13
2023-05-09T05:21:05.756Z,30.38
2023-05-09T05:23:32.272Z,30.24
2023-05-09T05:25:58.822Z,30.05
2023-05-09T05:28:25.530Z,29.99
2023-05-09T05:30:52.495Z,30.42
2023-05-09T05:33:19.061Z,29.87
2023-05-09T05:35:46.007Z,29.82
2023-05-09T05:38:12.660Z,29.93
2023-05-09T05:40:39.419Z,29.74
2023-05-09T05:43:07.410Z,29.30
2023-05-09T05:45:36.061Z,29.12
2023-05-09T05:48:05.254Z,29.30
2023-05-09T05:50:32.535Z,29.14
2023-05-09T05:52:59.496Z,29.04
2023-05-09T05:55:26.279Z,29.22
2023-05-09T05:57:52.965Z,29.00
2023-05-09T06:00:20.658Z,28.90
2023-05-09T06:02:53.519Z,28.31
2023-05-09T06:05:28.443Z,28.72
2023-05-09T06:07:55.128Z,28.45
2023-05-09T06:10:21.706Z,28.18
2023-05-09T06:12:48.361Z,28.18
2023-05-09T06:15:15.193Z,27.80
2023-05-09T06:17:46.797Z,27.49
2023-05-09T06:20:13.355Z,27.60
2023-05-09T06:22:39.993Z,25.90
2023-05-09T06:25:09.444Z,20.74
2023-05-09T06:27:37.006Z,16.61
2023-05-09T06:30:14.205Z,14.54
2023-05-09T06:32:50.216Z,12.84
2023-05-09T06:35:17.040Z,12.30
2023-05-09T06:37:43.560Z,11.60
2023-05-09T06:40:10.326Z,10.84
2023-05-09T06:42:36.838Z,10.27
2023-05-09T06:45:03.531Z,9.90
2023-05-09T06:47:30.085Z,10.21
2023-05-09T06:49:56.605Z,10.78
2023-05-09T06:52:23.109Z,12.56
2023-05-09T06:54:49.614Z,15.10
2023-05-09T06:57:16.144Z,16.69
2023-05-09T06:59:44.719Z,18.57
2023-05-09T07:02:11.502Z,19.29
2023-05-09T07:04:38.055Z,20.34
2023-05-09T07:07:04.707Z,20.63
2023-05-09T07:09:31.260Z,20.69
2023-05-09T07:11:57.788Z,20.85
2023-05-09T07:14:24.346Z,21.28
2023-05-09T07:16:50.881Z,21.17
2023-05-09T07:19:17.461Z,18.98
2023-05-09T07:21:44.053Z,14.84
2023-05-09T07:24:10.550Z,13.31
2023-05-09T07:26:37.035Z,12.30
2023-05-09T07:29:04.028Z,12.44
2023-05-09T07:31:31.006Z,11.48
2023-05-09T07:33:57.647Z,11.17
2023-05-09T07:36:24.176Z,10.53
2023-05-09T07:38:52.711Z,10.22
2023-05-09T07:41:19.417Z,10.16
2023-05-09T07:43:46.002Z,10.33
2023-05-09T07:46:12.619Z,10.25
2023-05-09T07:48:39.272Z,10.16
2023-05-09T07:51:05.796Z,9.67
2023-05-09T07:53:32.354Z,9.16
2023-05-09T07:55:59.038Z,8.92
2023-05-09T07:58:25.713Z,8.69
2023-05-09T08:00:52.257Z,8.61
2023-05-09T08:03:20.768Z,9.48
2023-05-09T08:05:47.441Z,8.55
2023-05-09T08:08:14.137Z,8.50
2023-05-09T08:10:40.636Z,8.98
2023-05-09T08:13:07.193Z,8.64
2023-05-09T08:15:33.743Z,8.01
2023-05-09T08:18:00.315Z,7.69
2023-05-09T08:20:26.879Z,7.99
2023-05-09T08:22:53.391Z,7.72
2023-05-09T08:25:20.839Z,7.82
2023-05-09T08:27:47.568Z,7.67
2023-05-09T08:30:14.746Z,7.37
2023-05-09T08:32:41.334Z,7.49
2023-05-09T08:35:09.054Z,7.69
2023-05-09T08:37:38.642Z,7.52
2023-05-09T08:40:08.658Z,7.38
2023-05-09T08:42:36.978Z,7.29
2023-05-09T08:45:09.702Z,6.99
2023-05-09T08:47:37.482Z,6.72
2023-05-09T08:50:05.791Z,6.45
2023-05-09T08:52:32.976Z,6.65
2023-05-09T08:55:06.247Z,6.20
2023-05-09T08:57:35.316Z,6.16
2023-05-09T09:00:04.683Z,6.22
2023-05-09T09:02:31.362Z,6.63
2023-05-09T09:04:58.064Z,6.75
2023-05-09T09:07:25.787Z,6.89
2023-05-09T09:09:52.401Z,6.86
2023-05-09T09:12:22.652Z,6.34
2023-05-09T09:14:52.959Z,6.14
2023-05-09T09:17:21.472Z,6.46
2023-05-09T09:19:50.114Z,6.55
2023-05-09T09:22:18.801Z,6.82
2023-05-09T09:24:45.454Z,7.25
2023-05-09T09:27:11.961Z,7.73
2023-05-09T09:29:41.157Z,8.04
2023-05-09T09:32:07.902Z,7.64
2023-05-09T09:34:34.459Z,7.67
2023-05-09T09:37:01.044Z,7.02
2023-05-09T09:39:27.590Z,7.01
2023-05-09T09:41:54.095Z,6.93
2023-05-09T09:44:21.956Z,6.82
2023-05-09T09:46:53.376Z,6.63
2023-05-09T09:49:21.751Z,6.48
2023-05-09T09:51:55.488Z,6.58
2023-05-09T09:54:22.612Z,6.99
2023-05-09T09:56:53.252Z,6.93
2023-05-09T09:59:23.582Z,6.53
2023-05-09T10:01:55.232Z,7.11
2023-05-09T10:04:22.541Z,6.88
2023-05-09T10:06:53.763Z,7.25
2023-05-09T10:09:22.095Z,7.47
2023-05-09T10:11:52.074Z,7.69
2023-05-09T10:14:19.809Z,7.52
2023-05-09T10:16:50.727Z,7.13
2023-05-09T10:19:18.667Z,7.98
2023-05-09T10:21:54.853Z,8.46
2023-05-09T10:24:30.051Z,8.37
2023-05-09T10:27:04.189Z,7.78
2023-05-09T10:29:34.720Z,8.96
2023-05-09T10:32:08.413Z,7.61
2023-05-09T10:34:37.475Z,7.72
2023-05-09T10:37:04.610Z,7.55
2023-05-09T10:39:31.378Z,8.26
2023-05-09T10:41:59.100Z,8.56
2023-05-09T10:44:25.889Z,8.62
2023-05-09T10:46:53.067Z,8.63
2023-05-09T10:49:20.202Z,9.51
2023-05-09T10:51:46.894Z,10.03
2023-05-09T10:54:15.641Z,10.03
2023-05-09T10:56:42.220Z,9.98
2023-05-09T10:59:35.595Z,9.37
2023-05-09T11:02:03.434Z,9.57
2023-05-09T11:04:31.557Z,9.41
2023-05-09T11:06:59.764Z,9.49
2023-05-09T11:09:34.536Z,8.73
2023-05-09T11:12:07.140Z,9.13
2023-05-09T11:14:38.585Z,8.99
2023-05-09T11:17:07.272Z,8.90
2023-05-09T11:19:45.386Z,8.90
2023-05-09T11:22:17.037Z,8.83
2023-05-09T11:24:48.318Z,9.11
2023-05-09T11:27:25.973Z,8.86
2023-05-09T11:29:57.588Z,8.56
2023-05-09T11:32:30.501Z,9.28
2023-05-09T11:35:13.597Z,8.78
2023-05-09T11:37:58.058Z,8.95
2023-05-09T11:40:24.719Z,9.81
2023-05-09T11:42:58.340Z,9.17
2023-05-09T11:45:30.232Z,8.85
2023-05-09T11:47:57.316Z,9.19
2023-05-09T11:50:23.973Z,9.06
2023-05-09T11:52:50.649Z,8.84
2023-05-09T11:55:19.772Z,8.97
2023-05-09T11:57:49.072Z,8.66
2023-05-09T12:00:17.475Z,8.46
2023-05-09T12:02:45.637Z,8.54
2023-05-09T12:05:19.823Z,8.46
2023-05-09T12:07:47.133Z,8.70
2023-05-09T12:10:15.727Z,8.60
2023-05-09T12:12:44.869Z,8.92
2023-05-09T12:15:13.578Z,8.75
2023-05-09T12:17:44.188Z,8.76
2023-05-09T12:20:11.026Z,9.38
2023-05-09T12:22:37.820Z,9.12
2023-05-09T12:25:09.548Z,8.51
2023-05-09T12:27:37.231Z,9.01
2023-05-09T12:30:12.005Z,8.71
2023-05-09T12:32:40.312Z,8.97
2023-05-09T12:35:08.457Z,8.97
2023-05-09T12:37:35.112Z,9.21
2023-05-09T12:40:05.219Z,9.33
2023-05-09T12:42:32.711Z,8.91
2023-05-09T12:44:59.455Z,8.95
2023-05-09T12:47:29.946Z,8.39
2023-05-09T12:50:00.052Z,8.04
2023-05-09T12:52:33.841Z,8.16
2023-05-09T12:55:09.167Z,8.25
2023-05-09T12:57:35.873Z,9.10
2023-05-09T13:00:04.667Z,8.67
2023-05-09T13:02:35.802Z,8.77
2023-05-09T13:05:12.928Z,8.77
2023-05-09T13:07:44.858Z,9.60
2023-05-09T13:10:13.390Z,9.34
2023-05-09T13:12:44.424Z,9.25
2023-05-09T13:15:12.096Z,9.14
2023-05-09T13:17:38.797Z,9.17
2023-05-09T13:20:05.908Z,9.37
2023-05-09T13:22:33.022Z,9.23
2023-05-09T13:24:59.781Z,9.19
2023-05-09T13:27:27.858Z,8.95
2023-05-09T13:29:54.425Z,8.87
2023-05-09T13:32:21.268Z,9.27
2023-05-09T13:34:47.752Z,9.56
2023-05-09T13:37:14.345Z,9.11
2023-05-09T13:39:40.916Z,9.15
2023-05-09T13:42:07.690Z,9.19
2023-05-09T13:44:34.199Z,9.24
2023-05-09T13:47:00.762Z,9.52
2023-05-09T13:49:29.972Z,9.83
2023-05-09T13:51:56.458Z,9.99
2023-05-09T13:54:23.087Z,9.80
2023-05-09T13:56:51.192Z,9.81
2023-05-09T13:59:17.768Z,10.00
2023-05-09T14:01:44.254Z,10.01
2023-05-09T14:04:10.924Z,9.52
2023-05-09T14:06:37.543Z,9.63
2023-05-09T14:09:04.229Z,9.78
2023-05-09T14:11:30.711Z,9.87
2023-05-09T14:13:57.433Z,10.39
2023-05-09T14:16:23.977Z,10.56
2023-05-09T14:18:50.646Z,10.73
2023-05-09T14:21:17.108Z,11.63
2023-05-09T14:23:43.772Z,11.95
2023-05-09T14:26:10.325Z,11.72
2023-05-09T14:28:38.180Z,11.87
2023-05-09T14:31:04.806Z,12.20
2023-05-09T14:33:31.866Z,12.50
2023-05-09T14:35:58.459Z,12.96
2023-05-09T14:38:24.996Z,13.19
2023-05-09T14:40:51.518Z,13.36
2023-05-09T14:43:18.025Z,13.71
2023-05-09T14:45:44.498Z,13.33
2023-05-09T14:48:12.270Z,14.00
2023-05-09T14:50:39.975Z,13.77
2023-05-09T14:53:06.591Z,13.70
2023-05-09T14:55:33.418Z,14.07
2023-05-09T14:57:59.908Z,14.35
2023-05-09T15:00:27.142Z,14.13
2023-05-09T15:02:54.242Z,14.76
2023-05-09T15:05:20.892Z,14.48
2023-05-09T15:07:47.479Z,14.29
2023-05-09T15:10:14.723Z,14.58
2023-05-09T15:12:41.584Z,14.67
2023-05-09T15:15:16.952Z,14.51
2023-05-09T15:17:44.559Z,14.51
2023-05-09T15:20:12.103Z,14.66
2023-05-09T15:22:38.607Z,14.90
2023-05-09T15:25:06.306Z,14.98
2023-05-09T15:27:32.894Z,14.61
2023-05-09T15:29:59.382Z,15.10
2023-05-09T15:32:26.088Z,15.03
2023-05-09T15:34:52.864Z,15.35
2023-05-09T15:37:19.384Z,15.37
2023-05-09T15:39:46.316Z,15.01
2023-05-09T15:42:13.406Z,15.40
2023-05-09T15:44:40.821Z,15.13
2023-05-09T15:47:07.910Z,15.00
2023-05-09T15:49:34.589Z,15.49
2023-05-09T15:52:05.021Z,16.00
2023-05-09T15:54:32.374Z,15.85
2023-05-09T15:56:59.438Z,15.63
2023-05-09T15:59:26.501Z,15.95
2023-05-09T16:01:53.507Z,15.99
2023-05-09T16:04:20.201Z,15.75
2023-05-09T16:06:47.355Z,15.74
2023-05-09T16:09:13.849Z,16.07
2023-05-09T16:11:41.426Z,16.16
2023-05-09T16:14:11.320Z,15.97
2023-05-09T16:16:38.798Z,16.32
2023-05-09T16:19:06.375Z,15.85
2023-05-09T16:21:33.115Z,16.47
2023-05-09T16:24:03.295Z,16.32
2023-05-09T16:26:29.854Z,16.36
2023-05-09T16:28:56.661Z,16.32
2023-05-09T16:31:26.643Z,16.39
2023-05-09T16:33:54.227Z,16.65
2023-05-09T16:36:21.040Z,16.66
2023-05-09T16:38:47.514Z,16.54
2023-05-09T16:41:14.056Z,16.70
2023-05-09T16:43:40.700Z,17.12
2023-05-09T16:46:07.282Z,16.93
2023-05-09T16:48:33.809Z,17.48
2023-05-09T16:51:00.309Z,17.25
2023-05-09T16:53:27.810Z,17.23
2023-05-09T16:55:54.757Z,17.43
2023-05-09T16:58:21.293Z,17.87
2023-05-09T17:00:48.266Z,17.83
2023-05-09T17:03:14.805Z,17.80
2023-05-09T17:05:41.345Z,17.78
2023-05-09T17:08:08.072Z,17.76
2023-05-09T17:10:37.020Z,17.95
2023-05-09T17:13:07.671Z,17.89
2023-05-09T17:18:01.344Z,17.80
2023-05-09T17:20:28.876Z,18.13
2023-05-09T17:22:56.374Z,18.16
2023-05-09T17:25:22.983Z,18.15
2023-05-09T17:27:49.574Z,18.30
2023-05-09T17:30:16.596Z,18.35
2023-05-09T17:32:43.427Z,18.57
2023-05-09T17:35:10.598Z,18.40
2023-05-09T17:37:37.201Z,18.38
2023-05-09T17:40:05.245Z,18.59
2023-05-09T17:42:32.199Z,18.87
2023-05-09T17:44:58.688Z,18.65
2023-05-09T17:47:25.236Z,18.97
2023-05-09T17:49:52.107Z,18.96
2023-05-09T17:52:18.662Z,19.05
2023-05-09T17:54:45.257Z,19.10
2023-05-09T17:57:11.788Z,19.37
2023-05-09T17:59:40.563Z,19.42
2023-05-09T18:02:10.738Z,19.59
2023-05-09T18:04:37.470Z,19.47
2023-05-09T18:07:04.175Z,19.79
2023-05-09T18:09:30.992Z,20.01
2023-05-09T18:11:59.032Z,20.16
2023-05-09T18:14:25.567Z,20.11
2023-05-09T18:16:52.065Z,20.34
2023-05-09T18:19:18.737Z,20.25
2023-05-09T18:21:45.486Z,20.35
2023-05-09T18:24:12.006Z,20.37
2023-05-09T18:26:38.585Z,20.55
2023-05-09T18:29:05.379Z,20.63
2023-05-09T18:31:38.504Z,20.61
2023-05-09T18:34:05.931Z,20.55
2023-05-09T18:36:32.663Z,20.58
2023-05-09T18:38:59.444Z,20.78
2023-05-09T18:41:26.560Z,20.78
2023-05-09T18:43:53.147Z,20.93
2023-05-09T18:46:22.256Z,21.09
2023-05-09T18:48:51.138Z,20.90
2023-05-09T18:51:18.436Z,21.02
2023-05-09T18:53:45.007Z,20.92
2023-05-09T18:56:11.540Z,21.19
2023-05-09T18:58:38.196Z,21.26
2023-05-09T19:01:05.222Z,21.14
2023-05-09T19:03:31.825Z,21.16
2023-05-09T19:05:58.691Z,21.47
2023-05-09T19:08:26.240Z,21.30
2023-05-09T19:10:52.773Z,21.33
2023-05-09T19:13:19.375Z,21.29
2023-05-09T19:15:47.212Z,21.38
2023-05-09T19:18:14.267Z,21.28
2023-05-09T19:20:40.848Z,21.28
2023-05-09T19:23:07.365Z,21.27
2023-05-09T19:25:33.949Z,21.32
2023-05-09T19:28:00.511Z,21.27
2023-05-09T19:30:27.027Z,21.39
2023-05-09T19:32:53.598Z,21.21
2023-05-09T19:35:20.225Z,21.51
2023-05-09T19:37:46.732Z,21.47
2023-05-09T19:40:13.390Z,21.57
2023-05-09T19:42:41.867Z,21.93
2023-05-09T19:45:08.893Z,21.89
2023-05-09T19:47:35.539Z,21.68
2023-05-09T19:50:02.220Z,21.67
2023-05-09T19:52:29.668Z,21.68
2023-05-09T19:54:56.167Z,21.79
2023-05-09T19:57:22.854Z,21.70
2023-05-09T19:59:49.394Z,21.83
2023-05-09T20:02:15.897Z,22.20
2023-05-09T20:04:49.473Z,21.94
2023-05-09T20:07:16.909Z,22.37
2023-05-09T20:09:43.501Z,22.39
2023-05-09T20:12:10.198Z,22.29
2023-05-09T20:14:36.983Z,22.45
2023-05-09T20:17:05.199Z,22.38
2023-05-09T20:19:33.098Z,22.36
2023-05-09T20:22:01.104Z,22.53
2023-05-09T20:24:27.940Z,22.46
2023-05-09T20:26:57.357Z,22.62
2023-05-09T20:29:24.788Z,22.54
2023-05-09T20:31:51.464Z,22.60
2023-05-09T20:34:19.591Z,22.84
2023-05-09T20:36:52.175Z,22.57
2023-05-09T20:39:19.397Z,22.67
2023-05-09T20:41:47.003Z,22.78
2023-05-09T20:44:14.558Z,22.96
2023-05-09T20:46:41.628Z,23.13
2023-05-09T20:49:08.118Z,23.03
2023-05-09T20:51:34.597Z,23.33
2023-05-09T20:54:01.232Z,23.33
2023-05-09T20:56:28.743Z,23.32
2023-05-09T20:58:56.200Z,23.29
2023-05-09T21:01:22.861Z,23.43
2023-05-09T21:03:49.475Z,23.66
2023-05-09T21:06:15.948Z,23.71
2023-05-09T21:08:43.310Z,24.13
2023-05-09T21:11:09.949Z,24.25
2023-05-09T21:13:37.249Z,24.01
2023-05-09T21:16:03.841Z,24.22
2023-05-09T21:18:30.374Z,24.54
2023-05-09T21:20:56.948Z,24.58
2023-05-09T21:23:23.443Z,24.64
2023-05-09T21:25:49.929Z,24.83
2023-05-09T21:28:17.334Z,24.84
2023-05-09T21:30:43.870Z,24.85
2023-05-09T21:33:10.668Z,25.02
2023-05-09T21:35:37.261Z,24.94
2023-05-09T21:38:03.735Z,25.08
2023-05-09T21:40:30.304Z,25.09
2023-05-09T21:42:56.807Z,25.30
2023-05-09T21:45:23.373Z,25.52
2023-05-09T21:47:49.996Z,25.58
2023-05-09T21:50:16.868Z,25.25
2023-05-09T21:52:43.753Z,25.46
2023-05-09T21:55:10.271Z,25.80
2023-05-09T21:57:36.804Z,25.78
2023-05-09T22:00:05.399Z,25.74
2023-05-09T22:02:40.627Z,25.73
2023-05-09T22:05:07.765Z,25.71
2023-05-09T22:07:34.470Z,25.76
2023-05-09T22:10:00.956Z,25.99
2023-05-09T22:12:27.483Z,25.92
2023-05-09T22:14:56.745Z,26.37
2023-05-09T22:17:24.525Z,26.49
2023-05-09T22:19:51.227Z,26.49
2023-05-09T22:22:17.732Z,26.73
2023-05-09T22:24:44.296Z,26.53
2023-05-09T22:27:11.002Z,26.77
2023-05-09T22:29:37.670Z,26.85
2023-05-09T22:32:04.754Z,27.06
2023-05-09T22:34:31.378Z,27.10
2023-05-09T22:36:57.903Z,27.08
2023-05-09T22:39:24.412Z,27.08
2023-05-09T22:41:50.960Z,27.08
2023-05-09T22:44:17.481Z,27.36
2023-05-09T22:46:44.006Z,27.28
2023-05-09T22:49:10.504Z,27.21
2023-05-09T22:51:37.086Z,27.32
2023-05-09T22:54:03.651Z,27.62
2023-05-09T22:56:30.172Z,27.46
2023-05-09T22:58:56.666Z,27.94
2023-05-09T23:01:23.216Z,27.85
2023-05-09T23:03:49.707Z,27.63
2023-05-09T23:06:16.250Z,28.36
2023-05-09T23:08:42.786Z,28.00
2023-05-09T23:11:09.302Z,27.88
2023-05-09T23:13:35.782Z,28.24
2023-05-09T23:16:02.590Z,28.26
2023-05-09T23:18:29.332Z,28.24
2023-05-09T23:20:55.803Z,28.14
2023-05-09T23:23:22.418Z,28.17
2023-05-09T23:25:48.906Z,28.29
2023-05-09T23:28:15.489Z,28.47
2023-05-09T23:30:41.985Z,28.57
2023-05-09T23:33:08.565Z,28.64
2023-05-09T23:35:35.076Z,28.86
2023-05-09T23:38:01.689Z,28.68
2023-05-09T23:40:28.218Z,28.88
2023-05-09T23:42:54.739Z,29.38
2023-05-09T23:45:21.296Z,29.35
2023-05-09T23:47:47.870Z,28.97
2023-05-09T23:50:14.613Z,29.00
2023-05-09T23:52:42.034Z,29.31
2023-05-09T23:55:09.311Z,29.30
2023-05-09T23:57:35.922Z,29.33
